Flight Track Log - Related Links

Times and Time Zones

All times are in EDT time to prevent confusion due to time zone crossing. See the ASQ5740 flight status page for this flight to view local times or setup timezone preferences in your user account.

Time Position Orientation Groundspeed Altitude Reporting Facility
EDT Latitude Longitude Course Direction KTS MPH feet Rate Location/Type
Sat 12:44:57 PM 38.9833 -77.4333 78° East 184 212 2,500  Level Potomac TRACON
Sat 12:45:51 PM 39.0500 -77.4500 349° North 245 282 4,900 3,150 Climbing Potomac TRACON
Sat 12:46:57 PM 39.1167 -77.4667 349° North 257 296 8,800 2,529 Climbing Potomac TRACON
Sat 12:47:00 PM 39.0376 -76.8661 72° East  Level FlightAware Approximate
Sat 12:47:52 PM 39.1833 -77.4333 21° North 308 354 10,000  Level Potomac TRACON
Sat 12:48:00 PM 39.0578 -76.7186 72° East  Level FlightAware Approximate
Sat 12:48:52 PM 39.2000 -77.3000 81° East 399 459 10,100  Level Potomac TRACON
Sat 12:49:00 PM 39.0833 -76.5732 90° East  Level FlightAware Approximate
Sat 12:50:00 PM 39.1070 -76.4247 78° East  Level FlightAware Approximate
Sat 12:50:39 PM 39.0872 -77.1078 127° Southeast 411 473 13,100  Level Washington Center
Sat 12:51:39 PM 39.0681 -76.9683 100° East 389 448 15,400 1,950 Climbing Washington Center
Sat 12:52:39 PM 39.0844 -76.8136 82° East 395 455 17,000 1,250 Climbing Washington Center
Sat 12:53:39 PM 39.1025 -76.6561 82° East 418 481 17,900 950 Climbing Washington Center
Sat 12:54:39 PM 39.1183 -76.4906 83° East 448 516 18,900 1,150 Climbing Washington Center
Sat 12:55:39 PM 39.1383 -76.3194 81° East 460 529 20,200 1,350 Climbing Washington Center
Sat 12:56:39 PM 39.1622 -76.1564 79° East 468 539 21,600 1,300 Climbing Washington Center
Sat 12:57:39 PM 39.1836 -75.9853 81° East 468 539 22,800 700 Climbing Washington Center
Sat 12:58:39 PM 39.2383 -75.8219 67° East 473 544 23,000 300 Climbing Washington Center
Sat 12:59:39 PM 39.3633 -75.7150 33° Northeast 491 565 23,400 550 Climbing Washington Center
Sat 01:00:39 PM 39.4947 -75.6211 29° Northeast 496 571 24,100 700 Climbing Washington Center
Sat 01:01:39 PM 39.6281 -75.5242 29° Northeast 529 609 24,800 600 Climbing Washington Center
Sat 01:02:39 PM 39.7281 -75.3703 50° Northeast 538 619 25,300 500 Climbing Washington Center
Sat 01:03:39 PM 39.8108 -75.2025 57° Northeast 538 619 25,800 513 Climbing Washington Center
Sat 01:04:36 PM 39.8839 -75.0453 59° Northeast 555 639 26,300 513 Climbing New York Center
Sat 01:05:36 PM 39.9733 -74.8744 56° Northeast 561 646 26,800 508 Climbing New York Center
Sat 01:06:34 PM 40.0606 -74.7061 56° Northeast 561 646 27,300 559 Climbing New York Center
Sat 01:07:34 PM 40.1783 -74.5389 47° Northeast 561 646 27,900 450 Climbing New York Center
Sat 01:08:34 PM 40.3078 -74.4669 23° Northeast 572 658 28,200 400 Climbing New York Center
Sat 01:09:34 PM 40.4614 -74.4261 11° North 546 628 28,700 545 Climbing New York Center
Sat 01:10:35 PM 40.6131 -74.3714 15° North 552 635 29,300 541 Climbing New York Center
Sat 01:11:36 PM 40.7458 -74.2525 34° Northeast 552 635 29,800 498 Climbing New York Center
Sat 01:14:00 PM 41.0869 -74.0017 29° Northeast 543 625 31,000 353 Climbing Boston Center
Sat 01:15:00 PM 41.2436 -73.9833 North 543 625 31,000  Level Boston Center
Sat 01:16:00 PM 41.4022 -73.9678 North 550 633 31,000  Level Boston Center
Sat 01:17:00 PM 41.5631 -73.9467 North 568 654 31,000  Level Boston Center
Sat 01:18:00 PM 41.7217 -73.9281 North 575 662 31,000  Level Boston Center
Sat 01:19:00 PM 41.8656 -73.9119 North 575 662 31,000  Level Boston Center
Sat 01:20:00 PM 42.0283 -73.8933 North 575 662 31,000  Level Boston Center
Sat 01:21:00 PM 42.1892 -73.8747 North 580 667 31,000  Level Boston Center
Sat 01:22:00 PM 42.3542 -73.8561 North 580 667 31,000  Level Boston Center
Sat 01:23:00 PM 42.5189 -73.8344 North 586 674 31,000  Level Boston Center
Sat 01:24:00 PM 42.6964 -73.8131 North 586 674 31,000 -250 Level Boston Center
Sat 01:25:00 PM 42.8594 -73.7686 11° North 592 681 30,500 -750 Descending Boston Center
Sat 01:26:00 PM 43.0311 -73.7125 13° North 610 702 29,500 -1,100 Descending Boston Center
Sat 01:27:00 PM 43.1775 -73.6644 13° North 615 708 28,300 -1,700 Descending Boston Center
Sat 01:28:00 PM 43.3386 -73.6047 15° North 604 695 26,100 -2,300 Descending Boston Center
Sat 01:29:00 PM 43.4914 -73.5447 16° North 584 672 23,700 -2,700 Descending Boston Center
Sat 01:30:00 PM 43.6356 -73.4900 15° North 556 640 20,700 -3,318 Descending Boston Center
Sat 01:31:12 PM 43.7967 -73.4267 16° North 509 586 16,400 -3,136 Descending Boston Center
Sat 01:32:12 PM 43.9242 -73.3769 16° North 458 527 13,800 -2,450 Descending Boston Center
Sat 01:33:12 PM 44.0225 -73.3350 17° North 388 447 11,500 -1,450 Descending Boston Center
Sat 01:34:12 PM 44.1186 -73.2961 16° North 354 407 10,900 -1,250 Descending Boston Center
Sat 01:35:12 PM 44.1919 -73.2364 30° Northeast 311 358 9,000 -1,900 Descending Boston Center
Sat 01:36:12 PM 44.2631 -73.1764 31° Northeast 298 343 7,100 -1,600 Descending Boston Center
Sat 01:37:12 PM 44.3117 -73.0869 53° Northeast 281 323 5,800 -800 Descending Boston Center
Sat 01:38:12 PM 44.3372 -72.9917 69° East 268 308 5,500 -200 Descending Boston Center
Sat 01:39:12 PM 44.3869 -72.9978 355° North 167 192 5,400 -100 Descending Boston Center

Login

Don't have an account? Register now (free) for customized features, flight alerts, and more!